Terminal Aerodrome Forecast
Issued by NWS

Home | Current Version | Previous Version | Text Only | Print | Product List | Glossary On
Versions: 1 2 3 4 5 6 7 8 9 10 11 12 13 14 15 16 17 18 19 20 21 22 23 24 25 26 27 28 29 30 31 32 33 34 35 36 37 38
510
FTUS41 KBOX 181505 AAA
TAFFMH
TAF AMD
KFMH 181505Z 1815/1912 13016G23KT P6SM OVC060
     FM182100 16016G25KT 3SM BR OVC015
     FM182300 17017G24KT 3SM -DZ BR OVC008 WS020/18045KT
     FM190000 18018KT 3SM -DZ BR OVC003 WS020/19050KT
     FM190400 20016G23KT 1SM BR VCSH OVC003 WS020/22045KT=

USA.gov is the U.S. government's official web portal to all federal, state and local government web resources and services.